Time;durP1;ratioP1;P1;durP2;ratioP2;P2;SDS_P1;SDS_P2;PMS_P1;PMS_P2;Temp;Humidity;BMP_temperature;BMP_pressure;BME280_temperature;BME280_humidity;BME280_pressure;Samples;Min_cycle;Max_cycle;Signal;HPM_P1;HPM_P2
2022/09/10 00:02:11;;;;;;;9.43;8.55;;;12.50;99.90;;;;;;4990201;28;20049;-77
2022/09/10 00:04:37;;;;;;;12.05;7.90;;;12.50;99.90;;;;;;5004082;28;20066;-77
2022/09/10 00:07:04;;;;;;;11.25;7.80;;;12.50;99.90;;;;;;5006374;28;20133;-78
2022/09/10 00:09:31;;;;;;;8.55;7.10;;;12.60;99.90;;;;;;5005121;28;20042;-77
2022/09/10 00:11:57;;;;;;;9.65;7.60;;;12.60;99.90;;;;;;5007249;28;20042;-77
2022/09/10 00:14:24;;;;;;;10.70;7.45;;;12.60;99.90;;;;;;4988107;28;20051;-77
2022/09/10 00:16:51;;;;;;;9.23;6.95;;;12.60;99.90;;;;;;4991282;28;20038;-77
2022/09/10 00:19:40;;;;;;;9.73;7.85;;;12.60;99.90;;;;;;4995236;28;20069;-78
2022/09/10 00:22:09;;;;;;;8.73;7.28;;;12.70;99.90;;;;;;5014682;28;20050;-78
2022/09/10 00:24:35;;;;;;;10.93;6.82;;;12.80;99.90;;;;;;4998856;28;21179;-78
2022/09/10 00:27:03;;;;;;;7.75;6.95;;;12.80;99.90;;;;;;5003954;28;20049;-78
2022/09/10 00:29:33;;;;;;;7.85;6.95;;;12.90;99.90;;;;;;4988006;28;20046;-78
2022/09/10 00:32:03;;;;;;;7.10;6.25;;;12.80;99.90;;;;;;4996644;28;20069;-77
2022/09/10 00:34:33;;;;;;;9.70;6.72;;;12.90;99.90;;;;;;5009575;28;20105;-78
2022/09/10 00:37:00;;;;;;;7.22;6.28;;;12.90;99.90;;;;;;4998087;28;20042;-78
2022/09/10 00:39:26;;;;;;;7.72;6.25;;;13.00;99.90;;;;;;4999611;28;20038;-78
2022/09/10 00:41:54;;;;;;;8.40;7.18;;;13.00;99.90;;;;;;4988985;28;20511;-78
2022/09/10 00:44:38;;;;;;;8.77;7.30;;;13.00;99.90;;;;;;5023319;28;20044;-78
2022/09/10 00:47:20;;;;;;;9.88;7.72;;;13.00;99.90;;;;;;5003430;28;20054;-77
2022/09/10 00:49:55;;;;;;;8.98;7.95;;;13.10;99.90;;;;;;5005262;28;20050;-77
2022/09/10 00:52:22;;;;;;;8.52;7.75;;;13.10;99.90;;;;;;5003300;28;20609;-77
2022/09/10 00:54:49;;;;;;;8.57;7.68;;;13.10;99.90;;;;;;5032995;28;20050;-77
2022/09/10 00:57:20;;;;;;;10.32;8.07;;;13.10;99.90;;;;;;4993960;28;20041;-78
2022/09/10 00:59:51;;;;;;;9.02;7.93;;;13.20;99.90;;;;;;5005246;28;20154;-78
2022/09/10 01:02:18;;;;;;;8.32;7.63;;;13.20;99.90;;;;;;5018968;28;20050;-77
2022/09/10 01:04:46;;;;;;;9.30;8.43;;;13.10;99.90;;;;;;5010777;28;20138;-77
2022/09/10 01:07:14;;;;;;;9.68;8.75;;;13.10;99.90;;;;;;4991074;23;20414;-75
2022/09/10 01:09:41;;;;;;;9.45;8.68;;;13.30;99.90;;;;;;4954495;28;20128;-75
2022/09/10 01:12:59;;;;;;;8.50;7.80;;;13.30;99.90;;;;;;4971097;28;20067;-75
2022/09/10 01:15:46;;;;;;;9.45;8.65;;;13.30;99.90;;;;;;4914782;28;20037;-75
2022/09/10 01:18:40;;;;;;;10.73;8.77;;;13.30;99.90;;;;;;4902182;28;20476;-75
2022/09/10 01:21:25;;;;;;;10.57;9.35;;;13.30;99.90;;;;;;4956217;28;20047;-75
2022/09/10 01:24:19;;;;;;;10.32;9.52;;;13.30;99.90;;;;;;4970433;23;20082;-74
2022/09/10 01:27:21;;;;;;;9.90;9.10;;;13.30;99.90;;;;;;4975162;28;20049;-75
2022/09/10 01:30:05;;;;;;;9.13;8.32;;;13.20;99.90;;;;;;4952748;28;20169;-74
2022/09/10 01:32:42;;;;;;;10.02;9.15;;;13.20;99.90;;;;;;4954622;28;20654;-75
2022/09/10 01:35:20;;;;;;;11.23;9.05;;;13.20;99.90;;;;;;4986284;28;20053;-75
2022/09/10 01:37:53;;;;;;;12.18;8.50;;;13.10;99.90;;;;;;4975574;28;20607;-76
2022/09/10 01:40:28;;;;;;;9.45;8.27;;;13.10;99.90;;;;;;4987734;28;20650;-76
2022/09/10 01:43:06;;;;;;;13.35;8.48;;;13.10;99.90;;;;;;5010501;28;20046;-75
2022/09/10 01:46:15;;;;;;;15.43;10.25;;;13.10;99.90;;;;;;4981428;28;20050;-76
2022/09/10 01:48:50;;;;;;;13.65;9.82;;;13.10;99.90;;;;;;4992121;28;20054;-75
2022/09/10 01:51:50;;;;;;;10.82;9.32;;;13.10;99.90;;;;;;4971949;28;20107;-75
2022/09/10 01:54:27;;;;;;;14.65;8.88;;;13.10;99.90;;;;;;4975048;28;20065;-76
2022/09/10 01:57:37;;;;;;;13.48;8.73;;;13.10;99.90;;;;;;4990876;28;20125;-75
2022/09/10 02:00:10;;;;;;;12.23;9.65;;;13.00;99.90;;;;;;4991794;28;20077;-74
2022/09/10 02:02:54;;;;;;;8.63;7.93;;;13.10;99.90;;;;;;4994774;28;20548;-74
2022/09/10 02:05:29;;;;;;;10.50;9.40;;;13.10;99.90;;;;;;4970528;28;20060;-75
2022/09/10 02:08:05;;;;;;;11.70;8.38;;;13.00;99.90;;;;;;4978562;28;20133;-74
2022/09/10 02:10:32;;;;;;;8.88;8.02;;;13.00;99.90;;;;;;4990720;28;20491;-75
2022/09/10 02:12:59;;;;;;;15.82;9.15;;;12.80;99.90;;;;;;5013918;28;20070;-75
2022/09/10 02:15:44;;;;;;;;;;;12.90;99.90;;;;;;4992033;28;20519;-75
2022/09/10 02:18:37;;;;;;;11.95;8.32;;;12.90;99.90;;;;;;4974451;28;20413;-75
2022/09/10 02:21:05;;;;;;;10.18;9.23;;;12.90;99.90;;;;;;4989365;28;20214;-75
2022/09/10 02:23:45;;;;;;;10.15;9.05;;;12.90;99.90;;;;;;4965717;28;20050;-74
2022/09/10 02:26:13;;;;;;;10.90;10.05;;;13.00;99.90;;;;;;4988756;28;20038;-75
2022/09/10 02:28:42;;;;;;;11.88;10.65;;;13.10;99.90;;;;;;4978572;28;20072;-75
2022/09/10 02:31:10;;;;;;;12.55;10.13;;;13.20;99.90;;;;;;4986846;28;20054;-74
2022/09/10 02:33:37;;;;;;;11.52;10.50;;;13.10;99.90;;;;;;4977093;28;20050;-75
2022/09/10 02:36:04;;;;;;;13.80;10.52;;;13.00;99.90;;;;;;4974514;28;20628;-76
2022/09/10 02:38:32;;;;;;;16.40;11.85;;;13.10;99.90;;;;;;4986918;28;20129;-74
2022/09/10 02:40:58;;;;;;;12.27;10.75;;;13.10;99.90;;;;;;4991614;28;20060;-74
2022/09/10 02:43:26;;;;;;;11.52;10.40;;;13.00;99.90;;;;;;4993689;28;20042;-74
2022/09/10 02:45:57;;;;;;;11.63;10.52;;;13.00;99.90;;;;;;5052891;28;20704;-75
2022/09/10 02:48:25;;;;;;;12.93;10.80;;;12.90;99.90;;;;;;4992993;28;20102;-75
2022/09/10 02:50:56;;;;;;;12.75;11.57;;;13.00;99.90;;;;;;4958558;28;20066;-75
2022/09/10 02:53:25;;;;;;;13.38;12.02;;;12.90;99.90;;;;;;4975476;28;20038;-75
2022/09/10 02:55:55;;;;;;;13.82;12.48;;;12.80;99.90;;;;;;4959888;28;20096;-74
2022/09/10 02:58:22;;;;;;;13.50;12.18;;;12.80;99.90;;;;;;5010382;28;20136;-72
2022/09/10 03:00:48;;;;;;;14.10;12.82;;;12.80;99.90;;;;;;4955957;28;20045;-72
2022/09/10 03:03:16;;;;;;;14.88;13.48;;;12.80;99.90;;;;;;4984914;28;20141;-74
2022/09/10 03:05:43;;;;;;;13.93;12.70;;;12.80;99.90;;;;;;4971800;28;20582;-76
2022/09/10 03:08:10;;;;;;;15.02;13.02;;;12.80;99.90;;;;;;4958686;28;20739;-73
2022/09/10 03:10:41;;;;;;;14.10;12.77;;;12.70;99.90;;;;;;4960367;28;20065;-74
2022/09/10 03:13:08;;;;;;;14.25;12.82;;;12.70;99.90;;;;;;4988267;28;20133;-73
2022/09/10 03:15:34;;;;;;;17.05;12.80;;;12.70;99.90;;;;;;4978858;28;20442;-73
2022/09/10 03:18:01;;;;;;;14.55;12.70;;;12.70;99.90;;;;;;4980479;28;20042;-74
2022/09/10 03:20:28;;;;;;;14.02;12.68;;;12.70;99.90;;;;;;4972823;28;20049;-73
2022/09/10 03:22:56;;;;;;;13.82;12.43;;;12.70;99.90;;;;;;4989785;28;20054;-73
2022/09/10 03:25:22;;;;;;;13.23;11.88;;;12.70;99.90;;;;;;4974982;28;20046;-74
2022/09/10 03:27:55;;;;;;;14.35;12.85;;;12.70;99.90;;;;;;4991703;28;20607;-73
2022/09/10 03:30:23;;;;;;;13.88;12.55;;;12.60;99.90;;;;;;4974612;28;20305;-73
2022/09/10 03:32:53;;;;;;;14.02;12.68;;;12.60;99.90;;;;;;4977104;28;20578;-75
2022/09/10 03:35:21;;;;;;;15.75;12.63;;;12.60;99.90;;;;;;4980071;28;20042;-74
2022/09/10 03:37:48;;;;;;;14.38;12.98;;;12.60;99.90;;;;;;4973380;28;20111;-73
2022/09/10 03:40:15;;;;;;;14.07;12.82;;;12.60;99.90;;;;;;4974389;28;20540;-74
2022/09/10 03:42:42;;;;;;;14.98;13.50;;;12.60;99.90;;;;;;4991390;28;20046;-73
2022/09/10 03:45:10;;;;;;;16.67;13.32;;;12.50;99.90;;;;;;4975202;28;20216;-74
2022/09/10 03:47:39;;;;;;;14.77;13.30;;;12.40;99.90;;;;;;4980964;28;20069;-73
2022/09/10 03:50:06;;;;;;;15.32;13.63;;;12.50;99.90;;;;;;4994117;28;20513;-74
2022/09/10 03:52:34;;;;;;;15.10;13.60;;;12.60;99.90;;;;;;4994159;28;20082;-73
2022/09/10 03:55:01;;;;;;;14.60;13.23;;;12.60;99.90;;;;;;4974753;28;20046;-74
2022/09/10 03:57:29;;;;;;;16.27;14.50;;;12.40;99.90;;;;;;4980208;28;20111;-74
2022/09/10 03:59:55;;;;;;;16.50;14.80;;;12.30;99.90;;;;;;5007961;28;20546;-74
2022/09/10 04:02:23;;;;;;;16.88;14.38;;;12.30;99.90;;;;;;4977170;28;20049;-74
2022/09/10 04:04:50;;;;;;;16.90;14.55;;;12.30;99.90;;;;;;4985024;28;20046;-74
2022/09/10 04:07:16;;;;;;;16.27;14.50;;;12.40;99.90;;;;;;4981685;28;20672;-74
2022/09/10 04:09:43;;;;;;;18.40;13.32;;;12.30;99.90;;;;;;4974400;28;20058;-74
2022/09/10 04:12:11;;;;;;;19.15;14.07;;;12.30;99.90;;;;;;5004080;28;20048;-74
2022/09/10 04:14:38;;;;;;;20.73;14.23;;;12.30;99.90;;;;;;4995553;28;20123;-74
2022/09/10 04:17:04;;;;;;;19.90;13.70;;;12.20;99.90;;;;;;4972277;28;20512;-75
2022/09/10 04:19:32;;;;;;;15.25;13.75;;;12.10;99.90;;;;;;4973410;28;20117;-73
2022/09/10 04:21:58;;;;;;;19.55;14.60;;;12.10;99.90;;;;;;4991682;28;20416;-74
2022/09/10 04:24:25;;;;;;;19.33;15.40;;;12.00;99.90;;;;;;4978531;28;20588;-73
2022/09/10 04:26:52;;;;;;;20.90;15.52;;;12.10;99.90;;;;;;4974912;28;20070;-72
2022/09/10 04:29:18;;;;;;;27.45;15.95;;;12.10;99.90;;;;;;4953104;28;20046;-76
2022/09/10 04:31:45;;;;;;;24.15;17.30;;;12.10;99.90;;;;;;4985480;28;20042;-74
2022/09/10 04:34:13;;;;;;;26.83;17.38;;;12.30;99.90;;;;;;4989010;28;20421;-74
2022/09/10 04:36:40;;;;;;;23.20;16.75;;;12.40;99.90;;;;;;4974724;28;20524;-75
2022/09/10 04:39:07;;;;;;;23.13;18.30;;;12.40;99.90;;;;;;5012154;28;20050;-74
2022/09/10 04:41:35;;;;;;;23.15;18.23;;;12.40;99.90;;;;;;4972807;28;20054;-73
2022/09/10 04:44:03;;;;;;;22.70;17.33;;;12.40;99.90;;;;;;4959399;28;20517;-73
2022/09/10 04:46:30;;;;;;;22.58;16.95;;;12.40;99.90;;;;;;4976372;28;20093;-75
2022/09/10 04:48:59;;;;;;;21.45;16.42;;;12.40;99.90;;;;;;5002615;28;20379;-74
2022/09/10 04:51:26;;;;;;;18.90;16.75;;;12.50;99.90;;;;;;5001589;28;20138;-76
2022/09/10 04:53:53;;;;;;;20.85;16.80;;;12.50;99.90;;;;;;5017213;28;20039;-75
2022/09/10 04:56:24;;;;;;;22.60;19.52;;;12.60;99.90;;;;;;4973801;28;20549;-76
2022/09/10 04:58:52;;;;;;;24.38;19.38;;;12.70;99.90;;;;;;4990593;28;20049;-75
2022/09/10 05:01:18;;;;;;;28.48;19.27;;;12.70;99.90;;;;;;4974411;28;20111;-75
2022/09/10 05:03:49;;;;;;;22.60;18.33;;;12.80;99.90;;;;;;4982035;28;20746;-75
2022/09/10 05:06:17;;;;;;;23.52;16.98;;;12.90;99.90;;;;;;4997177;28;20046;-75
2022/09/10 05:08:45;;;;;;;20.05;16.80;;;12.90;99.90;;;;;;4974036;28;20044;-76
2022/09/10 05:11:12;;;;;;;23.92;15.95;;;12.90;99.90;;;;;;4976380;28;20681;-75
2022/09/10 05:13:40;;;;;;;20.52;15.88;;;13.00;99.90;;;;;;4986934;28;20053;-76
2022/09/10 05:16:07;;;;;;;20.13;14.35;;;13.00;99.90;;;;;;4974473;28;20518;-76
2022/09/10 05:18:34;;;;;;;15.73;13.75;;;13.00;99.90;;;;;;4988808;28;20046;-75
2022/09/10 05:21:01;;;;;;;18.35;13.82;;;13.00;99.90;;;;;;4996240;28;20417;-76
2022/09/10 05:23:28;;;;;;;14.35;11.55;;;13.10;99.90;;;;;;4960214;28;20062;-73
2022/09/10 05:25:59;;;;;;;15.52;13.57;;;13.10;99.90;;;;;;4975975;28;20052;-76
2022/09/10 05:28:27;;;;;;;16.20;13.40;;;13.20;99.90;;;;;;4977645;28;20069;-74
2022/09/10 05:30:54;;;;;;;15.05;12.50;;;13.20;99.90;;;;;;4957891;28;20472;-74
2022/09/10 05:33:22;;;;;;;18.15;13.13;;;13.20;99.90;;;;;;4977937;28;20041;-75
2022/09/10 05:35:51;;;;;;;20.23;13.77;;;13.20;99.90;;;;;;4973706;28;20189;-75
2022/09/10 05:38:20;;;;;;;16.88;12.48;;;13.30;99.90;;;;;;4994915;28;20492;-76
2022/09/10 05:40:47;;;;;;;15.60;12.23;;;13.30;99.90;;;;;;4979152;28;20098;-75
2022/09/10 05:43:14;;;;;;;13.73;11.70;;;13.30;99.90;;;;;;4977103;28;20045;-74
2022/09/10 05:45:42;;;;;;;13.43;11.52;;;13.30;99.90;;;;;;4994331;28;20043;-75
2022/09/10 05:48:09;;;;;;;13.50;11.52;;;13.40;99.90;;;;;;4960299;28;20247;-76
2022/09/10 05:50:37;;;;;;;18.70;11.43;;;13.40;99.90;;;;;;4982258;28;20485;-75
2022/09/10 05:53:04;;;;;;;13.25;11.98;;;13.40;99.90;;;;;;4974189;28;20060;-75
2022/09/10 05:55:32;;;;;;;16.23;11.00;;;13.50;99.90;;;;;;4975909;28;20502;-75
2022/09/10 05:57:59;;;;;;;13.23;11.35;;;13.50;99.90;;;;;;4975231;28;20053;-75
2022/09/10 06:00:26;;;;;;;14.88;10.90;;;13.50;99.90;;;;;;4974845;28;20046;-73
2022/09/10 06:02:58;;;;;;;12.73;11.45;;;13.60;99.90;;;;;;4996646;28;20072;-75
2022/09/10 06:05:50;;;;;;;12.65;10.48;;;13.60;99.90;;;;;;5014325;28;21494;-75
2022/09/10 06:08:20;;;;;;;15.32;11.25;;;13.70;99.90;;;;;;4976083;28;20499;-73
2022/09/10 06:10:56;;;;;;;12.90;11.55;;;13.70;99.90;;;;;;4969856;28;20099;-73
2022/09/10 06:13:25;;;;;;;13.95;11.63;;;13.70;99.90;;;;;;4972632;28;20050;-75
2022/09/10 06:15:52;;;;;;;16.70;12.13;;;13.70;99.90;;;;;;4972411;28;20034;-73
2022/09/10 06:18:20;;;;;;;13.35;12.05;;;13.70;99.90;;;;;;4974822;28;20050;-73
2022/09/10 06:20:47;;;;;;;15.55;12.38;;;13.80;99.90;;;;;;4989037;28;20067;-75
2022/09/10 06:23:16;;;;;;;16.73;11.68;;;13.90;99.90;;;;;;4977659;28;20107;-75
2022/09/10 06:25:46;;;;;;;15.80;12.57;;;13.90;99.90;;;;;;4973694;28;20058;-73
2022/09/10 06:28:13;;;;;;;17.17;12.05;;;13.90;99.90;;;;;;4945387;28;20488;-72
2022/09/10 06:30:40;;;;;;;16.90;12.80;;;13.90;99.90;;;;;;4971061;28;20437;-75
2022/09/10 06:33:07;;;;;;;19.23;13.32;;;13.90;99.90;;;;;;4976854;28;20051;-72
2022/09/10 06:35:34;;;;;;;20.30;13.82;;;13.90;99.90;;;;;;4972817;28;20048;-73
2022/09/10 06:38:03;;;;;;;21.85;14.20;;;13.90;99.90;;;;;;4992183;28;20034;-73
2022/09/10 06:40:32;;;;;;;15.43;13.20;;;13.90;99.90;;;;;;4975412;28;20038;-73
2022/09/10 06:43:02;;;;;;;19.35;13.80;;;14.00;99.90;;;;;;4973609;28;20046;-73
2022/09/10 06:45:51;;;;;;;18.60;14.80;;;14.00;99.90;;;;;;4967123;28;20732;-72
2022/09/10 06:48:27;;;;;;;18.20;13.55;;;14.00;99.90;;;;;;5036034;28;20036;-73
2022/09/10 06:51:16;;;;;;;17.30;14.05;;;14.00;99.90;;;;;;4972410;28;20042;-73
2022/09/10 06:53:45;;;;;;;19.70;14.57;;;14.00;99.90;;;;;;4972332;28;20042;-74
2022/09/10 06:56:14;;;;;;;19.70;14.45;;;14.10;99.90;;;;;;4973751;28;20066;-74
2022/09/10 06:58:41;;;;;;;18.33;14.10;;;14.10;99.90;;;;;;4975886;28;20668;-74
2022/09/10 07:01:16;;;;;;;18.95;15.13;;;14.20;99.90;;;;;;4961794;28;20052;-74
2022/09/10 07:03:47;;;;;;;17.85;14.90;;;14.20;99.90;;;;;;4953531;28;20063;-72
2022/09/10 07:06:18;;;;;;;16.45;14.38;;;14.20;99.90;;;;;;4969061;28;20048;-74
2022/09/10 07:08:47;;;;;;;16.27;14.38;;;14.30;99.90;;;;;;4978018;28;20084;-74
2022/09/10 07:11:15;;;;;;;17.80;12.55;;;14.30;99.90;;;;;;4973817;28;20129;-71
2022/09/10 07:13:43;;;;;;;20.15;13.90;;;14.30;99.90;;;;;;4987276;28;20044;-73
2022/09/10 07:16:10;;;;;;;17.13;13.40;;;14.40;99.90;;;;;;4956600;28;20680;-73
2022/09/10 07:18:37;;;;;;;15.48;12.27;;;14.50;99.90;;;;;;4969384;28;20107;-73
2022/09/10 07:21:14;;;;;;;13.43;12.15;;;14.50;99.90;;;;;;4953515;28;20084;-74
2022/09/10 07:23:50;;;;;;;14.82;12.90;;;14.50;99.90;;;;;;4975913;22;20440;-75
2022/09/10 07:26:18;;;;;;;13.70;12.25;;;14.50;99.90;;;;;;4990654;28;20063;-76
2022/09/10 07:28:50;;;;;;;14.40;13.00;;;14.50;99.90;;;;;;4959251;28;20767;-75
2022/09/10 07:31:28;;;;;;;14.10;12.80;;;14.60;99.90;;;;;;4914869;28;20035;-76
2022/09/10 07:33:57;;;;;;;16.98;13.30;;;14.50;99.90;;;;;;4948608;28;20127;-76
2022/09/10 07:36:24;;;;;;;13.25;12.05;;;14.50;99.90;;;;;;4952896;28;20043;-76
2022/09/10 07:38:53;;;;;;;14.25;12.10;;;14.50;99.90;;;;;;4967979;28;20389;-76
2022/09/10 07:41:20;;;;;;;15.95;12.15;;;14.50;99.90;;;;;;4948307;28;20042;-76
2022/09/10 07:43:52;;;;;;;11.68;10.07;;;14.40;99.90;;;;;;4978215;28;21446;-76
2022/09/10 07:46:20;;;;;;;17.58;10.23;;;14.40;99.90;;;;;;4948728;28;20043;-77
2022/09/10 07:48:58;;;;;;;11.00;8.38;;;14.30;99.90;;;;;;4967429;28;20046;-76
2022/09/10 07:51:28;;;;;;;13.75;8.80;;;14.30;99.90;;;;;;4968159;28;20043;-77
2022/09/10 07:53:58;;;;;;;14.15;8.60;;;14.20;99.90;;;;;;4975835;28;20681;-76
2022/09/10 07:56:33;;;;;;;11.15;8.00;;;14.20;99.90;;;;;;4958327;28;20035;-77
2022/09/10 07:59:02;;;;;;;8.00;7.32;;;14.20;99.90;;;;;;4949098;28;20111;-76
2022/09/10 08:01:36;;;;;;;9.55;7.32;;;14.30;99.90;;;;;;4952714;28;20058;-76
2022/09/10 08:04:06;;;;;;;11.32;7.35;;;14.20;99.90;;;;;;4938430;28;20480;-75
2022/09/10 08:06:35;;;;;;;8.25;6.13;;;14.30;99.90;;;;;;4952871;28;20513;-75
2022/09/10 08:09:06;;;;;;;6.85;6.10;;;14.40;99.90;;;;;;4944911;28;20268;-74
2022/09/10 08:11:34;;;;;;;9.38;7.03;;;14.40;99.90;;;;;;4956364;28;20124;-75
2022/09/10 08:14:01;;;;;;;7.97;6.70;;;14.50;99.90;;;;;;4962412;28;20053;-75
2022/09/10 08:16:28;;;;;;;9.45;7.55;;;14.60;99.90;;;;;;4939571;28;20054;-76
2022/09/10 08:19:01;;;;;;;9.40;6.78;;;14.60;99.90;;;;;;4966784;28;20391;-75
2022/09/10 08:21:30;;;;;;;14.95;9.15;;;14.60;99.90;;;;;;4970371;28;20066;-76
2022/09/10 08:23:59;;;;;;;9.07;7.47;;;14.70;99.90;;;;;;4986560;28;20221;-74
2022/09/10 08:26:28;;;;;;;7.25;6.65;;;14.70;99.90;;;;;;5025854;28;20038;-76
2022/09/10 08:28:58;;;;;;;8.60;7.80;;;14.60;99.90;;;;;;5044939;28;20045;-75
2022/09/10 08:31:26;;;;;;;8.30;7.40;;;14.70;99.90;;;;;;5043445;28;20068;-76
2022/09/10 08:34:12;;;;;;;7.30;6.60;;;14.80;99.90;;;;;;5043992;28;20339;-76
2022/09/10 08:36:43;;;;;;;15.73;7.53;;;14.90;99.90;;;;;;5029600;28;20033;-77
2022/09/10 08:39:11;;;;;;;10.07;8.05;;;14.90;99.90;;;;;;5048647;28;20053;-76
2022/09/10 08:41:37;;;;;;;10.25;9.32;;;15.10;99.90;;;;;;5042577;28;20073;-76
2022/09/10 08:44:22;;;;;;;9.38;8.57;;;15.30;99.90;;;;;;5044696;28;20664;-75
2022/09/10 08:46:58;;;;;;;11.25;9.07;;;15.40;99.90;;;;;;5029407;28;20822;-75
2022/09/10 08:49:44;;;;;;;9.25;8.35;;;15.50;99.90;;;;;;5045438;28;20748;-75
2022/09/10 08:52:32;;;;;;;9.15;8.15;;;15.50;99.90;;;;;;5050271;28;20147;-76
2022/09/10 08:55:22;;;;;;;9.90;8.68;;;15.50;99.90;;;;;;5054385;28;20119;-74
2022/09/10 08:58:13;;;;;;;10.13;9.18;;;15.70;99.90;;;;;;5031813;28;20045;-75
2022/09/10 09:00:43;;;;;;;11.70;10.50;;;15.80;99.90;;;;;;5039775;28;20042;-74
2022/09/10 09:03:31;;;;;;;12.50;11.35;;;15.90;99.90;;;;;;5050959;28;20086;-74
2022/09/10 09:06:05;;;;;;;13.57;12.23;;;16.00;99.90;;;;;;5049297;28;20106;-74
2022/09/10 09:08:47;;;;;;;14.00;12.52;;;16.30;99.90;;;;;;5077616;28;20041;-74
2022/09/10 09:11:35;;;;;;;16.58;15.02;;;16.40;99.90;;;;;;5038242;28;20072;-75
2022/09/10 09:14:35;;;;;;;16.60;15.30;;;16.40;99.90;;;;;;5046424;28;20156;-75
2022/09/10 09:17:07;;;;;;;16.90;15.20;;;16.40;99.90;;;;;;5037467;28;20651;-74
2022/09/10 09:20:13;;;;;;;16.85;15.48;;;16.50;99.90;;;;;;5044981;28;20063;-74
2022/09/10 09:22:50;;;;;;;18.58;16.83;;;16.60;99.90;;;;;;5043495;28;20147;-75
2022/09/10 09:25:22;;;;;;;17.58;15.85;;;16.80;99.90;;;;;;5047905;28;20044;-74
2022/09/10 09:27:55;;;;;;;18.73;17.10;;;16.70;99.90;;;;;;5027405;28;20053;-75
2022/09/10 09:30:36;;;;;;;19.42;17.75;;;16.70;99.90;;;;;;5051427;28;20049;-76
2022/09/10 09:33:13;;;;;;;17.83;16.42;;;16.90;99.90;;;;;;5041662;28;20106;-77
2022/09/10 09:35:53;;;;;;;20.23;18.52;;;17.30;99.90;;;;;;5046517;28;20041;-75
2022/09/10 09:38:24;;;;;;;19.77;18.20;;;17.20;99.90;;;;;;5039634;28;20041;-75
2022/09/10 09:40:58;;;;;;;19.07;17.60;;;17.10;99.90;;;;;;5054533;28;20054;-76
2022/09/10 09:43:50;;;;;;;18.88;17.33;;;17.10;99.90;;;;;;5028098;28;20091;-76
2022/09/10 09:46:19;;;;;;;20.45;18.52;;;17.30;99.90;;;;;;5044774;28;20531;-76
2022/09/10 09:48:53;;;;;;;16.08;14.48;;;17.30;99.90;;;;;;5041577;28;20063;-75
2022/09/10 09:51:24;;;;;;;17.33;15.82;;;17.10;99.90;;;;;;5025247;28;20497;-76
2022/09/10 09:53:56;;;;;;;18.13;16.55;;;17.00;99.90;;;;;;5044604;28;20071;-76
2022/09/10 09:56:49;;;;;;;17.58;15.82;;;16.90;99.90;;;;;;5047206;28;20043;-75
2022/09/10 09:59:26;;;;;;;16.58;14.98;;;17.10;99.90;;;;;;5051445;28;20044;-75
2022/09/10 10:01:57;;;;;;;18.00;16.45;;;17.30;99.90;;;;;;5050101;28;20142;-76
2022/09/10 10:04:29;;;;;;;20.90;19.20;;;17.60;99.90;;;;;;5043259;28;20113;-75
2022/09/10 10:06:58;;;;;;;19.50;18.10;;;17.70;99.90;;;;;;5045157;28;20051;-76
2022/09/10 10:09:42;;;;;;;20.55;19.02;;;18.20;99.90;;;;;;5046544;28;20053;-77
2022/09/10 10:12:19;;;;;;;19.67;18.35;;;18.60;99.90;;;;;;5047910;28;20040;-75
2022/09/10 10:14:46;;;;;;;25.73;23.80;;;19.00;99.90;;;;;;5042652;28;20037;-75
2022/09/10 10:17:34;;;;;;;22.92;20.90;;;18.80;99.90;;;;;;5050072;28;20040;-74
2022/09/10 10:20:11;;;;;;;23.83;21.98;;;18.60;99.90;;;;;;5038460;28;20040;-74
2022/09/10 10:22:40;;;;;;;22.00;20.40;;;18.40;99.90;;;;;;5045543;28;20044;-77
2022/09/10 10:25:29;;;;;;;23.77;22.17;;;18.30;99.90;;;;;;5045511;28;20060;-76
2022/09/10 10:27:56;;;;;;;24.48;22.67;;;18.20;99.90;;;;;;5050350;28;20503;-76
2022/09/10 10:30:23;;;;;;;24.40;22.52;;;18.10;99.90;;;;;;5049409;28;20283;-75
2022/09/10 10:32:55;;;;;;;24.33;22.73;;;18.10;99.90;;;;;;5042435;28;20040;-75
2022/09/10 10:36:03;;;;;;;24.88;23.17;;;17.80;99.90;;;;;;5042502;28;20055;-76
2022/09/10 10:38:36;;;;;;;22.27;20.80;;;17.70;99.90;;;;;;5028351;28;20041;-75
2022/09/10 10:41:38;;;;;;;25.40;23.20;;;17.40;99.90;;;;;;5040667;28;20049;-77
2022/09/10 10:44:46;;;;;;;24.38;22.52;;;17.50;99.90;;;;;;5048214;28;20631;-76
2022/09/10 10:47:16;;;;;;;23.65;21.95;;;17.70;99.90;;;;;;5044660;28;20045;-75
2022/09/10 10:49:52;;;;;;;24.23;22.42;;;17.60;99.90;;;;;;5041196;28;20045;-74
2022/09/10 10:52:32;;;;;;;23.15;21.35;;;17.60;99.90;;;;;;5039489;28;20040;-75
2022/09/10 10:55:05;;;;;;;23.13;21.33;;;17.60;99.90;;;;;;5043317;28;20215;-75
2022/09/10 10:57:38;;;;;;;23.20;21.40;;;17.50;99.90;;;;;;5043772;28;20037;-76
2022/09/10 11:00:11;;;;;;;21.80;19.92;;;17.30;99.90;;;;;;5041782;28;20132;-75
2022/09/10 11:02:53;;;;;;;21.15;19.35;;;17.40;99.90;;;;;;5048721;28;20052;-76
2022/09/10 11:05:25;;;;;;;22.67;20.48;;;17.40;99.90;;;;;;5043047;28;20147;-76
2022/09/10 11:07:55;;;;;;;20.38;18.45;;;17.50;99.90;;;;;;5045545;28;20553;-76
2022/09/10 11:10:32;;;;;;;19.15;17.33;;;17.80;99.90;;;;;;5047673;28;20192;-74
2022/09/10 11:13:02;;;;;;;19.30;17.27;;;17.80;99.90;;;;;;5050890;28;20048;-75
2022/09/10 11:15:33;;;;;;;19.23;17.65;;;18.00;99.90;;;;;;5028649;28;20037;-74
2022/09/10 11:18:26;;;;;;;19.65;18.15;;;17.90;99.90;;;;;;5041659;28;20131;-75
2022/09/10 11:21:07;;;;;;;19.17;17.60;;;18.00;99.90;;;;;;5042719;28;20048;-75
2022/09/10 11:23:36;;;;;;;21.45;19.95;;;18.00;99.90;;;;;;5055731;28;20127;-75
2022/09/10 11:26:30;;;;;;;22.33;20.63;;;17.90;99.90;;;;;;4957935;28;20039;-75
2022/09/10 11:29:14;;;;;;;22.30;20.52;;;17.80;99.90;;;;;;4976452;28;20053;-75
2022/09/10 11:31:44;;;;;;;23.30;21.58;;;17.80;99.90;;;;;;4946475;28;20439;-74
2022/09/10 11:34:18;;;;;;;24.45;22.58;;;18.00;99.90;;;;;;4944242;28;20111;-74
2022/09/10 11:37:02;;;;;;;21.77;20.08;;;18.10;99.90;;;;;;4969760;28;20034;-74
2022/09/10 11:39:34;;;;;;;20.35;18.77;;;18.30;99.90;;;;;;4971970;28;20509;-74
2022/09/10 11:42:12;;;;;;;23.60;21.88;;;18.40;99.90;;;;;;4942476;28;20144;-74
2022/09/10 11:44:46;;;;;;;23.38;21.67;;;18.20;99.90;;;;;;4955649;28;20047;-76
2022/09/10 11:47:39;;;;;;;24.83;23.02;;;18.10;99.90;;;;;;4968033;28;20493;-74
2022/09/10 11:50:23;;;;;;;22.88;21.08;;;17.90;99.90;;;;;;4944708;28;20058;-75
2022/09/10 11:52:52;;;;;;;20.77;19.38;;;18.00;99.90;;;;;;4978823;28;20571;-73
2022/09/10 11:55:20;;;;;;;21.98;20.17;;;17.90;99.90;;;;;;4968215;28;20045;-76
2022/09/10 11:57:56;;;;;;;24.73;22.85;;;17.90;99.90;;;;;;4987225;28;20120;-76
2022/09/10 12:00:24;;;;;;;26.75;24.45;;;17.90;99.90;;;;;;4986508;28;20055;-76
2022/09/10 12:02:54;;;;;;;24.17;22.15;;;17.90;99.90;;;;;;4972092;28;20047;-78
2022/09/10 12:05:53;;;;;;;23.98;21.65;;;17.70;99.90;;;;;;4959308;28;20721;-76
2022/09/10 12:08:19;;;;;;;19.05;17.38;;;17.60;99.90;;;;;;4965318;28;20051;-76
2022/09/10 12:11:14;;;;;;;18.23;16.73;;;17.00;99.90;;;;;;4961178;28;20058;-76
2022/09/10 12:13:44;;;;;;;17.73;16.02;;;16.80;99.90;;;;;;4974347;28;20046;-76
2022/09/10 12:16:21;;;;;;;19.45;17.65;;;16.60;99.90;;;;;;4970898;28;20053;-77
2022/09/10 12:18:51;;;;;;;19.88;16.73;;;16.70;99.90;;;;;;4957272;28;20096;-77
2022/09/10 12:21:31;;;;;;;17.13;15.50;;;16.70;99.90;;;;;;4939942;28;20058;-76
2022/09/10 12:24:00;;;;;;;24.50;18.92;;;16.40;99.90;;;;;;4958342;28;20078;-76
2022/09/10 12:26:27;;;;;;;24.95;18.48;;;16.10;99.90;;;;;;5013487;28;20038;-74
2022/09/10 12:28:58;;;;;;;21.23;18.92;;;15.90;99.90;;;;;;4964060;28;20132;-74
2022/09/10 12:31:26;;;;;;;22.40;18.88;;;15.80;99.90;;;;;;4957455;28;20049;-73
2022/09/10 12:33:53;;;;;;;22.73;19.40;;;15.70;99.90;;;;;;4967698;28;20559;-74
2022/09/10 12:36:26;;;;;;;24.75;18.75;;;15.60;99.90;;;;;;4935412;28;20047;-74
2022/09/10 12:39:22;;;;;;;22.30;17.98;;;15.70;99.90;;;;;;4949068;28;20666;-74
2022/09/10 12:41:48;;;;;;;17.80;15.52;;;15.70;99.90;;;;;;4948278;28;20043;-74
2022/09/10 12:44:33;;;;;;;15.77;14.13;;;15.70;99.90;;;;;;4962877;28;20074;-74
2022/09/10 12:47:12;;;;;;;15.35;13.70;;;15.60;99.90;;;;;;4945887;28;20170;-75
2022/09/10 12:49:50;;;;;;;18.35;15.73;;;15.50;99.90;;;;;;4935764;28;20073;-75
2022/09/10 12:52:38;;;;;;;20.90;16.63;;;15.40;99.90;;;;;;4939397;28;20047;-75
2022/09/10 12:55:05;;;;;;;23.45;20.30;;;15.40;99.90;;;;;;4951161;28;20064;-73
2022/09/10 12:58:02;;;;;;;21.95;18.80;;;15.60;99.90;;;;;;4969260;28;20042;-74
2022/09/10 13:00:52;;;;;;;17.83;15.90;;;15.70;99.90;;;;;;4907289;28;20138;-75
2022/09/10 13:03:21;;;;;;;20.70;16.92;;;15.80;99.90;;;;;;4952662;28;20168;-76